createdAt,value
2023-05-09T00:04:35.362Z,21.59
2023-05-09T00:09:39.633Z,21.53
2023-05-09T00:14:45.268Z,21.43
2023-05-09T00:19:48.040Z,21.37
2023-05-09T00:24:52.474Z,21.32
2023-05-09T00:29:55.372Z,21.25
2023-05-09T00:34:58.144Z,21.21
2023-05-09T00:40:02.338Z,21.21
2023-05-09T00:45:07.007Z,21.10
2023-05-09T00:50:10.960Z,21.10
2023-05-09T00:55:16.086Z,21.05
2023-05-09T01:00:19.658Z,20.96
2023-05-09T01:05:22.426Z,20.95
2023-05-09T01:10:32.170Z,20.95
2023-05-09T01:15:37.619Z,20.87
2023-05-09T01:20:45.509Z,20.87
2023-05-09T01:25:56.178Z,20.85
2023-05-09T01:31:00.416Z,20.81
2023-05-09T01:36:05.193Z,20.78
2023-05-09T01:41:08.705Z,20.75
2023-05-09T01:46:12.832Z,20.71
2023-05-09T01:51:15.601Z,20.67
2023-05-09T01:56:18.364Z,20.63
2023-05-09T02:01:22.680Z,20.65
2023-05-09T02:06:25.562Z,20.62
2023-05-09T02:11:28.316Z,20.59
2023-05-09T02:16:32.523Z,20.54
2023-05-09T02:21:35.424Z,20.50
2023-05-09T02:26:38.181Z,20.50
2023-05-09T02:31:42.651Z,20.47
2023-05-09T02:36:45.569Z,20.45
2023-05-09T02:41:51.150Z,20.42
2023-05-09T02:46:55.989Z,20.40
2023-05-09T02:51:58.694Z,20.37
2023-05-09T02:57:01.424Z,20.34
2023-05-09T03:02:06.430Z,20.34
2023-05-09T03:07:09.653Z,20.31
2023-05-09T03:12:12.578Z,20.28
2023-05-09T03:17:17.297Z,20.25
2023-05-09T03:22:20.628Z,20.25
2023-05-09T03:27:32.372Z,20.24
2023-05-09T03:32:37.153Z,20.18
2023-05-09T03:37:40.236Z,20.17
2023-05-09T03:42:44.039Z,20.13
2023-05-09T03:47:48.277Z,20.11
2023-05-09T03:52:51.542Z,20.10
2023-05-09T03:57:54.524Z,20.08
2023-05-09T04:02:59.398Z,20.09
2023-05-09T04:08:08.749Z,20.07
2023-05-09T04:13:11.778Z,20.07
2023-05-09T04:18:16.417Z,20.05
2023-05-09T04:23:20.376Z,20.06
2023-05-09T04:28:23.716Z,20.05
2023-05-09T04:33:29.068Z,20.06
2023-05-09T04:38:36.326Z,20.05
2023-05-09T04:43:43.375Z,20.06
2023-05-09T04:48:47.759Z,20.09
2023-05-09T04:53:50.806Z,20.11
2023-05-09T04:58:56.000Z,20.13
2023-05-09T05:04:00.306Z,20.15
2023-05-09T05:09:03.824Z,20.16
2023-05-09T05:14:06.998Z,20.17
2023-05-09T05:19:11.906Z,20.21
2023-05-09T05:24:16.763Z,20.23
2023-05-09T05:29:20.373Z,20.23
2023-05-09T05:34:24.601Z,20.25
2023-05-09T05:39:27.829Z,20.25
2023-05-09T05:44:30.937Z,20.31
2023-05-09T05:49:35.589Z,20.34
2023-05-09T05:54:39.248Z,20.36
2023-05-09T05:59:42.113Z,20.39
2023-05-09T06:04:46.730Z,20.43
2023-05-09T06:09:49.605Z,20.45
2023-05-09T06:14:52.744Z,20.46
2023-05-09T06:19:57.162Z,20.52
2023-05-09T06:25:00.014Z,20.55
2023-05-09T06:30:11.204Z,20.55
2023-05-09T06:35:22.213Z,20.59
2023-05-09T06:40:25.013Z,20.62
2023-05-09T06:45:28.171Z,20.65
2023-05-09T06:50:33.013Z,20.66
2023-05-09T06:55:36.104Z,20.70
2023-05-09T07:00:39.003Z,20.70
2023-05-09T07:05:43.697Z,20.46
2023-05-09T07:10:46.533Z,20.23
2023-05-09T07:15:49.540Z,19.72
2023-05-09T07:20:53.886Z,19.97
2023-05-09T07:25:59.507Z,19.92
2023-05-09T07:31:02.358Z,19.92
2023-05-09T07:36:06.941Z,19.88
2023-05-09T07:41:09.872Z,19.81
2023-05-09T07:46:12.985Z,19.70
2023-05-09T07:51:17.267Z,19.65
2023-05-09T07:56:20.039Z,19.73
2023-05-09T08:01:22.894Z,19.76
2023-05-09T08:06:27.342Z,19.79
2023-05-09T08:11:30.593Z,19.81
2023-05-09T08:16:33.443Z,19.76
2023-05-09T08:21:37.652Z,19.78
2023-05-09T08:26:40.673Z,19.75
2023-05-09T08:31:43.670Z,19.72
2023-05-09T08:36:48.337Z,19.73
2023-05-09T08:41:51.168Z,19.63
2023-05-09T08:46:54.120Z,19.33
2023-05-09T08:51:58.360Z,19.53
2023-05-09T08:57:01.290Z,19.51
2023-05-09T09:02:07.382Z,19.50
2023-05-09T09:07:11.896Z,19.38
2023-05-09T09:12:15.336Z,19.50
2023-05-09T09:17:20.612Z,19.62
2023-05-09T09:22:24.767Z,19.53
2023-05-09T09:27:27.903Z,19.56
2023-05-09T09:38:00.240Z,19.68
2023-05-09T09:43:03.374Z,19.65
2023-05-09T09:48:07.306Z,19.73
2023-05-09T09:53:11.572Z,19.64
2023-05-09T09:58:17.918Z,19.82
2023-05-09T10:03:20.926Z,19.78
2023-05-09T10:08:25.303Z,19.89
2023-05-09T10:13:28.292Z,19.92
2023-05-09T10:18:31.905Z,19.96
2023-05-09T10:23:38.651Z,20.00
2023-05-09T10:28:42.597Z,20.05
2023-05-09T10:33:48.014Z,20.15
2023-05-09T10:38:52.588Z,20.15
2023-05-09T10:43:57.070Z,20.22
2023-05-09T10:48:59.894Z,20.18
2023-05-09T10:54:04.123Z,20.36
2023-05-09T10:59:06.918Z,20.39
2023-05-09T11:04:11.141Z,20.51
2023-05-09T11:09:34.906Z,20.56
2023-05-09T11:14:42.534Z,20.62
2023-05-09T11:20:02.122Z,20.68
2023-05-09T11:25:07.368Z,20.72
2023-05-09T11:30:11.520Z,20.79
2023-05-09T11:35:15.617Z,20.84
2023-05-09T11:40:21.111Z,20.90
2023-05-09T11:45:24.937Z,20.95
2023-05-09T11:50:27.868Z,21.02
2023-05-09T11:55:32.738Z,21.06
2023-05-09T12:00:37.260Z,21.07
2023-05-09T12:05:40.169Z,21.11
2023-05-09T12:10:44.683Z,21.14
2023-05-09T12:15:47.620Z,21.18
2023-05-09T12:20:51.152Z,21.17
2023-05-09T12:25:55.997Z,21.26
2023-05-09T12:30:58.941Z,21.31
2023-05-09T12:36:03.950Z,21.39
2023-05-09T12:41:18.187Z,21.46
2023-05-09T12:46:25.576Z,21.51
2023-05-09T12:51:28.528Z,21.56
2023-05-09T12:56:36.576Z,21.60
2023-05-09T13:01:39.423Z,21.71
2023-05-09T13:06:49.019Z,21.63
2023-05-09T13:11:53.347Z,21.60
2023-05-09T13:16:56.261Z,21.66
2023-05-09T13:21:59.213Z,21.65
2023-05-09T13:27:03.640Z,21.74
2023-05-09T13:32:07.160Z,21.78
2023-05-09T13:37:10.048Z,21.80
2023-05-09T13:42:18.429Z,21.83
2023-05-09T13:47:22.292Z,21.91
2023-05-09T13:52:25.180Z,21.95
2023-05-09T13:57:29.560Z,22.04
2023-05-09T14:02:32.423Z,22.04
2023-05-09T14:07:35.327Z,22.09
2023-05-09T14:12:40.695Z,22.15
2023-05-09T14:17:43.905Z,22.18
2023-05-09T14:22:46.793Z,22.18
2023-05-09T14:27:51.449Z,22.25
2023-05-09T14:32:54.243Z,22.30
2023-05-09T14:37:56.990Z,22.30
2023-05-09T14:43:02.497Z,22.38
2023-05-09T14:48:05.662Z,22.44
2023-05-09T14:53:09.215Z,22.65
2023-05-09T14:58:14.377Z,22.85
2023-05-09T15:03:17.243Z,23.03
2023-05-09T15:08:20.064Z,23.04
2023-05-09T15:13:24.376Z,23.29
2023-05-09T15:18:28.687Z,23.30
2023-05-09T15:23:31.627Z,23.46
2023-05-09T15:28:36.121Z,23.56
2023-05-09T15:33:39.024Z,23.65
2023-05-09T15:38:42.181Z,23.74
2023-05-09T15:43:46.492Z,23.81
2023-05-09T15:48:49.271Z,23.96
2023-05-09T15:53:52.379Z,24.05
2023-05-09T15:58:56.659Z,24.21
2023-05-09T16:04:00.147Z,24.25
2023-05-09T16:09:04.433Z,24.28
2023-05-09T16:14:11.266Z,25.31
2023-05-09T16:19:14.305Z,26.67
2023-05-09T16:24:17.401Z,27.53
2023-05-09T16:29:22.330Z,27.22
2023-05-09T16:34:25.159Z,27.01
2023-05-09T16:39:28.262Z,26.54
2023-05-09T16:44:32.421Z,26.24
2023-05-09T16:49:35.283Z,26.29
2023-05-09T16:54:38.094Z,26.89
2023-05-09T16:59:42.326Z,27.09
2023-05-09T17:04:45.400Z,27.07
2023-05-09T17:09:49.502Z,27.21
2023-05-09T17:14:53.871Z,27.01
2023-05-09T17:19:57.572Z,26.52
2023-05-09T17:25:00.431Z,26.23
2023-05-09T17:30:05.579Z,26.03
2023-05-09T17:35:09.258Z,25.69
2023-05-09T17:40:12.544Z,25.43
2023-05-09T17:45:16.929Z,25.24
2023-05-09T17:50:20.761Z,25.05
2023-05-09T17:55:23.622Z,24.92
2023-05-09T18:00:27.787Z,24.81
2023-05-09T18:05:30.654Z,24.68
2023-05-09T18:10:33.396Z,24.59
2023-05-09T18:15:38.475Z,24.52
2023-05-09T18:20:41.431Z,24.40
2023-05-09T18:25:44.388Z,24.34
2023-05-09T18:30:49.045Z,24.22
2023-05-09T18:35:52.074Z,24.12
2023-05-09T18:40:54.899Z,24.19
2023-05-09T18:45:59.058Z,24.16
2023-05-09T18:51:01.930Z,23.99
2023-05-09T18:56:05.735Z,24.01
2023-05-09T19:01:11.741Z,23.99
2023-05-09T19:06:15.274Z,23.87
2023-05-09T19:11:18.066Z,23.86
2023-05-09T19:16:22.486Z,23.77
2023-05-09T19:21:25.548Z,23.76
2023-05-09T19:26:28.303Z,23.76
2023-05-09T19:31:32.680Z,23.75
2023-05-09T19:36:35.504Z,23.71
2023-05-09T19:41:38.437Z,23.63
2023-05-09T19:46:43.867Z,23.64
2023-05-09T19:51:46.785Z,23.63
2023-05-09T19:56:49.589Z,23.68
2023-05-09T20:01:53.835Z,23.63
2023-05-09T20:06:56.634Z,23.65
2023-05-09T20:11:59.847Z,23.59
2023-05-09T20:17:05.152Z,23.59
2023-05-09T20:22:08.784Z,23.64
2023-05-09T20:27:11.855Z,23.65
2023-05-09T20:32:16.134Z,23.64
2023-05-09T20:37:18.932Z,23.65
2023-05-09T20:42:23.234Z,23.61
2023-05-09T20:47:27.504Z,23.65
2023-05-09T20:52:30.257Z,23.62
2023-05-09T20:57:33.299Z,23.65
2023-05-09T21:02:37.612Z,23.62
2023-05-09T21:07:40.681Z,23.63
2023-05-09T21:12:43.664Z,23.65
2023-05-09T21:17:47.886Z,23.65
2023-05-09T21:22:50.795Z,23.68
2023-05-09T21:27:53.695Z,23.67
2023-05-09T21:32:57.864Z,23.68
2023-05-09T21:38:00.687Z,23.66
2023-05-09T21:43:03.721Z,23.62
2023-05-09T21:48:08.080Z,23.60
2023-05-09T21:53:11.023Z,23.60
2023-05-09T21:58:14.147Z,23.61
2023-05-09T22:03:18.423Z,23.60
2023-05-09T22:08:21.257Z,23.57
2023-05-09T22:13:24.151Z,23.55
2023-05-09T22:18:28.413Z,23.48
2023-05-09T22:23:31.191Z,23.44
2023-05-09T22:28:34.041Z,23.40
2023-05-09T22:33:38.230Z,23.34
2023-05-09T22:38:40.991Z,23.25
2023-05-09T22:43:43.828Z,23.23
2023-05-09T22:48:47.944Z,23.19
2023-05-09T22:53:50.691Z,23.10
2023-05-09T22:58:53.549Z,23.05
2023-05-09T23:03:57.664Z,22.99
2023-05-09T23:09:00.444Z,22.99
2023-05-09T23:14:03.383Z,22.96
2023-05-09T23:19:07.492Z,22.93
2023-05-09T23:24:10.260Z,22.88
2023-05-09T23:29:13.055Z,22.84
2023-05-09T23:34:17.450Z,22.83
2023-05-09T23:39:20.201Z,22.74
2023-05-09T23:44:22.936Z,22.75
2023-05-09T23:49:27.182Z,22.70
2023-05-09T23:54:29.936Z,22.65
2023-05-09T23:59:32.917Z,22.61
